createdAt,value
2022-11-06T00:00:22.764Z,8.30
2022-11-06T00:02:51.871Z,8.20
2022-11-06T00:05:39.617Z,8.20
2022-11-06T00:08:06.562Z,8.20
2022-11-06T00:10:34.030Z,8.20
2022-11-06T00:13:00.964Z,8.20
2022-11-06T00:15:30.468Z,8.20
2022-11-06T00:17:57.384Z,8.20
2022-11-06T00:20:29.806Z,8.20
2022-11-06T00:22:56.709Z,8.20
2022-11-06T00:25:28.443Z,8.20
2022-11-06T00:27:57.561Z,8.10
2022-11-06T00:30:29.141Z,8.10
2022-11-06T00:32:55.917Z,8.10
2022-11-06T00:35:27.652Z,8.10
2022-11-06T00:37:56.833Z,8.10
2022-11-06T00:40:23.842Z,8.10
2022-11-06T00:42:55.091Z,8.10
2022-11-06T00:45:24.497Z,8.10
2022-11-06T00:47:53.579Z,8.10
2022-11-06T00:50:20.581Z,8.10
2022-11-06T00:52:49.466Z,8.10
2022-11-06T00:55:18.837Z,8.10
2022-11-06T00:57:45.747Z,8.10
2022-11-06T01:00:18.048Z,8.10
2022-11-06T01:02:49.141Z,8.10
2022-11-06T01:05:16.537Z,8.10
2022-11-06T01:07:46.302Z,8.10
2022-11-06T01:10:13.201Z,8.10
2022-11-06T01:12:42.870Z,8.00
2022-11-06T01:15:10.304Z,8.10
2022-11-06T01:17:37.173Z,8.10
2022-11-06T01:20:07.959Z,8.00
2022-11-06T01:22:34.840Z,8.00
2022-11-06T01:25:04.029Z,8.00
2022-11-06T01:27:33.985Z,8.00
2022-11-06T01:30:03.499Z,8.00
2022-11-06T01:32:30.460Z,8.00
2022-11-06T01:34:57.652Z,8.00
2022-11-06T01:37:29.163Z,8.00
2022-11-06T01:39:56.035Z,8.00
2022-11-06T01:42:22.938Z,8.00
2022-11-06T01:45:14.129Z,8.00
2022-11-06T01:47:41.100Z,8.00
2022-11-06T01:50:10.982Z,8.00
2022-11-06T01:52:40.653Z,8.00
2022-11-06T01:55:23.268Z,7.90
2022-11-06T01:57:53.273Z,7.90
2022-11-06T02:00:20.480Z,7.90
2022-11-06T02:02:48.330Z,7.90
2022-11-06T02:05:15.493Z,7.90
2022-11-06T02:07:45.936Z,7.90
2022-11-06T02:10:17.803Z,7.90
2022-11-06T02:12:56.066Z,7.90
2022-11-06T02:15:58.536Z,7.90
2022-11-06T02:18:38.957Z,7.90
2022-11-06T02:21:29.678Z,7.90
2022-11-06T02:24:29.668Z,7.90
2022-11-06T02:27:14.821Z,7.90
2022-11-06T02:29:48.901Z,7.90
2022-11-06T02:32:35.169Z,7.90
2022-11-06T02:35:33.917Z,7.90
2022-11-06T02:38:16.996Z,7.90
2022-11-06T02:40:53.065Z,7.90
2022-11-06T02:43:26.765Z,7.90
2022-11-06T02:46:14.765Z,7.90
2022-11-06T02:48:47.801Z,7.90
2022-11-06T02:51:21.596Z,8.00
2022-11-06T02:53:49.348Z,8.00
2022-11-06T02:56:26.931Z,8.00
2022-11-06T02:59:20.662Z,8.00
2022-11-06T03:01:53.551Z,8.00
2022-11-06T03:04:43.340Z,8.00
2022-11-06T03:07:29.145Z,8.00
2022-11-06T03:09:58.751Z,8.10
2022-11-06T03:13:02.113Z,8.00
2022-11-06T03:15:52.908Z,8.10
2022-11-06T03:18:35.120Z,8.10
2022-11-06T03:21:10.247Z,8.10
2022-11-06T03:23:53.781Z,8.10
2022-11-06T03:26:45.501Z,8.10
2022-11-06T03:29:38.856Z,8.10
2022-11-06T03:32:28.048Z,8.10
2022-11-06T03:35:28.560Z,8.10
2022-11-06T03:38:32.681Z,8.10
2022-11-06T03:41:14.957Z,8.10
2022-11-06T03:43:44.417Z,8.10
2022-11-06T03:46:20.062Z,8.10
2022-11-06T03:49:02.214Z,8.10
2022-11-06T03:51:42.926Z,8.20
2022-11-06T03:54:41.464Z,8.20
2022-11-06T03:57:26.800Z,8.10
2022-11-06T03:59:59.724Z,8.20
2022-11-06T04:02:30.916Z,8.20
2022-11-06T04:05:05.180Z,8.20
2022-11-06T04:07:36.938Z,8.20
2022-11-06T04:10:28.067Z,8.20
2022-11-06T04:13:16.736Z,8.20
2022-11-06T04:15:56.139Z,8.20
2022-11-06T04:18:22.996Z,8.10
2022-11-06T04:21:24.899Z,8.10
2022-11-06T04:24:53.187Z,8.10
2022-11-06T04:27:26.811Z,8.10
2022-11-06T04:30:12.616Z,8.10
2022-11-06T04:32:59.633Z,8.10
2022-11-06T04:35:45.353Z,8.10
2022-11-06T04:38:30.237Z,8.10
2022-11-06T04:41:34.575Z,8.00
2022-11-06T04:44:18.620Z,8.00
2022-11-06T04:47:17.792Z,8.00
2022-11-06T04:49:45.801Z,8.00
2022-11-06T04:52:19.696Z,8.00
2022-11-06T04:54:47.467Z,8.00
2022-11-06T04:57:16.671Z,8.00
2022-11-06T04:59:45.808Z,8.00
2022-11-06T05:02:12.672Z,8.10
2022-11-06T05:04:41.809Z,8.00
2022-11-06T05:07:10.887Z,8.00
2022-11-06T05:09:37.743Z,8.00
2022-11-06T05:12:07.385Z,8.00
2022-11-06T05:14:34.258Z,8.00
2022-11-06T05:17:01.157Z,8.00
2022-11-06T05:19:27.980Z,8.00
2022-11-06T05:22:13.178Z,8.00
2022-11-06T05:24:44.777Z,8.00
2022-11-06T05:27:13.998Z,7.90
2022-11-06T05:29:45.482Z,7.90
2022-11-06T05:32:12.325Z,7.90
2022-11-06T05:34:39.208Z,7.80
2022-11-06T05:37:06.073Z,7.80
2022-11-06T05:39:34.776Z,7.80
2022-11-06T05:42:04.657Z,7.80
2022-11-06T05:44:31.511Z,7.80
2022-11-06T05:46:58.442Z,7.80
2022-11-06T05:49:25.261Z,7.80
2022-11-06T05:51:52.075Z,7.80
2022-11-06T05:54:23.393Z,7.80
2022-11-06T05:56:50.242Z,7.90
2022-11-06T05:59:17.062Z,7.90
2022-11-06T06:01:46.117Z,7.90
2022-11-06T06:04:13.057Z,7.90
2022-11-06T06:06:40.079Z,7.90
2022-11-06T06:09:11.953Z,7.90
2022-11-06T06:11:41.265Z,8.00
2022-11-06T06:14:08.103Z,7.90
2022-11-06T06:16:35.004Z,7.90
2022-11-06T06:19:04.599Z,8.00
2022-11-06T06:21:31.459Z,8.00
2022-11-06T06:24:00.405Z,8.00
2022-11-06T06:26:27.254Z,8.00
2022-11-06T06:28:54.215Z,8.00
2022-11-06T06:31:21.429Z,7.90
2022-11-06T06:33:50.493Z,7.90
2022-11-06T06:36:17.329Z,8.00
2022-11-06T06:38:46.487Z,8.00
2022-11-06T06:41:13.337Z,8.00
2022-11-06T06:43:49.996Z,8.00
2022-11-06T06:46:19.177Z,8.00
2022-11-06T06:48:48.660Z,8.00
2022-11-06T06:51:19.694Z,8.00
2022-11-06T06:53:52.492Z,8.00
2022-11-06T06:56:21.837Z,7.90
2022-11-06T06:58:48.964Z,8.00
2022-11-06T07:01:20.339Z,8.00
2022-11-06T07:03:52.516Z,8.00
2022-11-06T07:06:20.203Z,8.00
2022-11-06T07:08:47.095Z,8.00
2022-11-06T07:11:14.559Z,8.00
2022-11-06T07:13:41.395Z,8.00
2022-11-06T07:16:13.543Z,8.00
2022-11-06T07:18:41.343Z,8.00
2022-11-06T07:21:14.677Z,8.00
2022-11-06T07:23:41.594Z,8.00
2022-11-06T07:26:08.754Z,8.00
2022-11-06T07:28:40.638Z,8.00
2022-11-06T07:31:08.569Z,8.00
2022-11-06T07:33:35.982Z,8.00
2022-11-06T07:36:09.033Z,8.00
2022-11-06T07:38:40.469Z,8.10
2022-11-06T07:41:17.094Z,8.00
2022-11-06T07:43:44.132Z,8.00
2022-11-06T07:46:13.728Z,8.00
2022-11-06T07:48:43.101Z,8.10
2022-11-06T07:51:11.902Z,8.10
2022-11-06T07:53:38.917Z,8.20
2022-11-06T07:56:08.614Z,8.20
2022-11-06T07:58:35.516Z,8.30
2022-11-06T08:01:02.869Z,8.30
2022-11-06T08:03:34.409Z,8.30
2022-11-06T08:06:03.733Z,8.30
2022-11-06T08:08:32.982Z,8.30
2022-11-06T08:11:09.639Z,8.40
2022-11-06T08:13:38.183Z,8.40
2022-11-06T08:16:15.390Z,8.40
2022-11-06T08:18:44.760Z,8.50
2022-11-06T08:21:11.630Z,8.50
2022-11-06T08:23:40.933Z,8.50
2022-11-06T08:26:07.990Z,8.60
2022-11-06T08:28:35.338Z,8.60
2022-11-06T08:31:09.451Z,8.70
2022-11-06T08:33:38.114Z,8.70
2022-11-06T08:36:06.959Z,8.80
2022-11-06T08:38:34.222Z,8.80
2022-11-06T08:41:11.972Z,8.90
2022-11-06T08:43:39.588Z,9.00
2022-11-06T08:46:10.360Z,9.00
2022-11-06T08:48:37.605Z,9.00
2022-11-06T08:51:08.129Z,9.10
2022-11-06T08:53:35.208Z,9.10
2022-11-06T08:56:05.536Z,9.20
2022-11-06T08:58:32.641Z,9.20
2022-11-06T09:00:59.532Z,9.30
2022-11-06T09:03:26.444Z,9.30
2022-11-06T09:05:56.305Z,9.30
2022-11-06T09:08:24.183Z,9.40
2022-11-06T09:10:58.342Z,9.40
2022-11-06T09:13:26.314Z,9.50
2022-11-06T09:15:53.229Z,9.60
2022-11-06T09:18:22.717Z,9.60
2022-11-06T09:20:52.150Z,9.70
2022-11-06T09:23:19.038Z,9.80
2022-11-06T09:25:45.947Z,9.90
2022-11-06T09:28:15.310Z,9.90
2022-11-06T09:30:49.296Z,9.90
2022-11-06T09:33:16.638Z,10.00
2022-11-06T09:35:43.679Z,10.10
2022-11-06T09:38:12.484Z,10.10
2022-11-06T09:40:48.558Z,10.20
2022-11-06T09:44:04.704Z,10.20
2022-11-06T09:46:41.964Z,10.10
2022-11-06T09:49:30.513Z,10.20
2022-11-06T09:52:23.013Z,10.20
2022-11-06T09:54:56.303Z,10.20
2022-11-06T09:57:35.490Z,10.30
2022-11-06T10:00:05.182Z,10.30
2022-11-06T10:02:47.104Z,10.30
2022-11-06T10:05:18.281Z,10.40
2022-11-06T10:07:47.074Z,10.40
2022-11-06T10:10:57.945Z,10.50
2022-11-06T10:13:50.250Z,10.50
2022-11-06T10:16:26.732Z,10.60
2022-11-06T10:19:07.182Z,10.60
2022-11-06T10:21:53.474Z,10.70
2022-11-06T10:24:46.899Z,10.70
2022-11-06T10:27:38.952Z,10.80
2022-11-06T10:30:22.131Z,10.80
2022-11-06T10:33:16.589Z,10.90
2022-11-06T10:35:52.880Z,10.90
2022-11-06T10:38:47.190Z,11.00
2022-11-06T10:41:24.957Z,11.00
2022-11-06T10:43:59.816Z,11.10
2022-11-06T10:46:41.246Z,11.10
2022-11-06T10:49:45.656Z,11.10
2022-11-06T10:53:00.497Z,11.20
2022-11-06T10:56:00.132Z,11.20
2022-11-06T10:58:30.868Z,11.20
2022-11-06T11:01:04.646Z,11.30
2022-11-06T11:03:36.798Z,11.30
2022-11-06T11:06:05.021Z,11.40
2022-11-06T11:08:40.609Z,11.40
2022-11-06T11:11:13.575Z,11.50
2022-11-06T11:13:45.941Z,11.50
2022-11-06T11:16:22.845Z,11.50
2022-11-06T11:18:51.180Z,11.50
2022-11-06T11:21:27.743Z,11.50
2022-11-06T11:24:11.413Z,11.50
2022-11-06T11:26:45.535Z,11.50
2022-11-06T11:29:26.295Z,11.50
2022-11-06T11:32:01.033Z,11.60
2022-11-06T11:34:31.483Z,11.70
2022-11-06T11:37:05.923Z,11.70
2022-11-06T11:39:40.377Z,11.80
2022-11-06T11:42:30.210Z,11.80
2022-11-06T11:45:09.291Z,11.80
2022-11-06T11:47:41.436Z,11.90
2022-11-06T11:50:32.308Z,12.00
2022-11-06T11:53:07.116Z,12.00
2022-11-06T11:55:49.707Z,12.10
2022-11-06T11:58:24.229Z,12.20
2022-11-06T12:01:03.793Z,12.20
2022-11-06T12:03:52.304Z,12.30
2022-11-06T12:06:20.224Z,12.40
2022-11-06T12:08:54.217Z,12.40
2022-11-06T12:11:25.653Z,12.40
2022-11-06T12:14:34.261Z,12.40
2022-11-06T12:17:21.511Z,12.40
2022-11-06T12:19:58.270Z,12.40
2022-11-06T12:22:38.154Z,12.30
2022-11-06T12:25:22.566Z,12.40
2022-11-06T12:28:00.451Z,12.40
2022-11-06T12:30:30.005Z,12.40
2022-11-06T12:33:17.459Z,12.40
2022-11-06T12:36:00.171Z,12.50
2022-11-06T12:38:46.603Z,12.50
2022-11-06T12:41:24.127Z,12.50
2022-11-06T12:43:52.179Z,12.50
2022-11-06T12:46:33.661Z,12.50
2022-11-06T12:49:28.331Z,12.50
2022-11-06T12:52:33.419Z,12.50
2022-11-06T12:55:52.169Z,12.50
2022-11-06T12:58:42.691Z,12.50
2022-11-06T13:01:38.417Z,12.40
2022-11-06T13:04:24.128Z,12.40
2022-11-06T13:07:31.388Z,12.40
2022-11-06T13:10:17.976Z,12.40
2022-11-06T13:13:28.578Z,12.40
2022-11-06T13:16:14.161Z,12.40
2022-11-06T13:18:54.228Z,12.40
2022-11-06T13:21:52.339Z,12.30
2022-11-06T13:24:35.449Z,12.30
2022-11-06T13:27:34.403Z,12.20
2022-11-06T13:30:25.040Z,12.20
2022-11-06T13:33:10.710Z,12.20
2022-11-06T13:35:41.975Z,12.20
2022-11-06T13:38:18.557Z,12.20
2022-11-06T13:40:53.808Z,12.20
2022-11-06T13:43:41.429Z,12.20
2022-11-06T13:46:24.853Z,12.20
2022-11-06T13:49:55.859Z,12.20
2022-11-06T13:52:43.299Z,12.20
2022-11-06T13:55:31.237Z,12.20
2022-11-06T13:58:03.153Z,12.10
2022-11-06T14:01:09.471Z,12.00
2022-11-06T14:03:51.453Z,12.00
2022-11-06T14:06:28.287Z,12.00
2022-11-06T14:09:19.706Z,12.00
2022-11-06T14:11:57.395Z,11.90
2022-11-06T14:14:30.486Z,11.80
2022-11-06T14:17:29.861Z,11.60
2022-11-06T14:20:12.079Z,11.60
2022-11-06T14:22:39.129Z,11.60
2022-11-06T14:25:41.396Z,11.50
2022-11-06T14:28:13.265Z,11.50
2022-11-06T14:31:11.139Z,11.40
2022-11-06T14:33:45.827Z,11.40
2022-11-06T14:36:24.945Z,11.40
2022-11-06T14:38:55.732Z,11.40
2022-11-06T14:41:38.336Z,11.40
2022-11-06T14:44:16.003Z,11.50
2022-11-06T14:46:56.629Z,11.50
2022-11-06T14:49:51.039Z,11.50
2022-11-06T14:52:19.375Z,11.60
2022-11-06T14:55:04.483Z,11.50
2022-11-06T14:57:55.842Z,11.50
2022-11-06T15:00:36.708Z,11.60
2022-11-06T15:03:14.832Z,11.60
2022-11-06T15:05:42.763Z,11.60
2022-11-06T15:08:10.140Z,11.60
2022-11-06T15:10:43.070Z,11.60
2022-11-06T15:13:17.754Z,11.60
2022-11-06T15:15:49.064Z,11.50
2022-11-06T15:18:22.856Z,11.50
2022-11-06T15:21:05.883Z,11.50
2022-11-06T15:23:52.799Z,11.50
2022-11-06T15:26:45.635Z,11.40
2022-11-06T15:29:34.433Z,11.40
2022-11-06T15:32:10.898Z,11.40
2022-11-06T15:34:52.682Z,11.40
2022-11-06T15:37:29.230Z,11.20
2022-11-06T15:40:01.364Z,11.20
2022-11-06T15:42:33.811Z,11.20
2022-11-06T15:45:23.573Z,11.20
2022-11-06T15:48:03.047Z,11.20
2022-11-06T15:50:33.199Z,11.20
2022-11-06T15:53:28.606Z,11.20
2022-11-06T15:55:57.009Z,11.20
2022-11-06T15:58:32.376Z,11.20
2022-11-06T16:01:05.476Z,11.10
2022-11-06T16:03:52.419Z,11.10
2022-11-06T16:06:20.343Z,11.00
2022-11-06T16:08:51.525Z,11.00
2022-11-06T16:11:20.252Z,10.90
2022-11-06T16:13:47.790Z,10.90
2022-11-06T16:16:40.871Z,10.80
2022-11-06T16:19:28.028Z,10.80
2022-11-06T16:22:14.735Z,10.70
2022-11-06T16:24:45.871Z,10.70
2022-11-06T16:27:16.769Z,10.70
2022-11-06T16:29:51.960Z,10.70
2022-11-06T16:32:24.359Z,10.70
2022-11-06T16:34:51.833Z,10.70
2022-11-06T16:37:18.656Z,10.70
2022-11-06T16:39:52.548Z,10.70
2022-11-06T16:42:38.856Z,10.60
2022-11-06T16:45:16.530Z,10.60
2022-11-06T16:47:46.620Z,10.70
2022-11-06T16:50:46.020Z,10.70
2022-11-06T16:53:22.048Z,10.70
2022-11-06T16:55:57.776Z,10.60
2022-11-06T16:58:25.561Z,10.60
2022-11-06T17:01:01.852Z,10.60
2022-11-06T17:03:53.300Z,10.50
2022-11-06T17:06:28.991Z,10.50
2022-11-06T17:09:09.176Z,10.40
2022-11-06T17:11:39.130Z,10.40
2022-11-06T17:14:19.872Z,10.40
2022-11-06T17:16:57.855Z,10.40
2022-11-06T17:19:28.536Z,10.30
2022-11-06T17:21:55.757Z,10.40
2022-11-06T17:24:38.397Z,10.40
2022-11-06T17:27:06.506Z,10.40
2022-11-06T17:29:39.623Z,10.40
2022-11-06T17:32:06.792Z,10.50
2022-11-06T17:34:33.710Z,10.40
2022-11-06T17:37:00.615Z,10.40
2022-11-06T17:39:27.548Z,10.40
2022-11-06T17:41:54.523Z,10.40
2022-11-06T17:44:22.361Z,10.50
2022-11-06T17:46:49.324Z,10.50
2022-11-06T17:49:18.470Z,10.50
2022-11-06T17:52:01.866Z,10.60
2022-11-06T17:54:37.200Z,10.60
2022-11-06T17:57:07.320Z,10.60
2022-11-06T17:59:35.232Z,10.70
2022-11-06T18:02:05.317Z,10.70
2022-11-06T18:04:34.164Z,10.70
2022-11-06T18:07:01.046Z,10.70
2022-11-06T18:09:30.316Z,10.70
2022-11-06T18:11:57.281Z,10.70
2022-11-06T18:14:28.807Z,10.70
2022-11-06T18:16:55.739Z,10.70
2022-11-06T18:19:27.166Z,10.70
2022-11-06T18:21:59.906Z,10.70
2022-11-06T18:24:29.334Z,10.70
2022-11-06T18:26:56.228Z,10.70
2022-11-06T18:29:25.650Z,10.70
2022-11-06T18:31:54.961Z,10.70
2022-11-06T18:34:22.511Z,10.70
2022-11-06T18:36:52.930Z,10.70
2022-11-06T18:39:20.276Z,10.80
2022-11-06T18:41:47.209Z,10.80
2022-11-06T18:44:18.185Z,10.80
2022-11-06T18:46:48.781Z,10.80
2022-11-06T18:49:18.175Z,10.80
2022-11-06T18:51:49.721Z,10.70
2022-11-06T18:54:16.515Z,10.70
2022-11-06T18:56:43.444Z,10.70
2022-11-06T18:59:19.519Z,10.70
2022-11-06T19:01:47.125Z,10.80
2022-11-06T19:04:16.744Z,10.80
2022-11-06T19:06:43.741Z,10.80
2022-11-06T19:09:10.682Z,10.80
2022-11-06T19:11:40.135Z,10.80
2022-11-06T19:14:07.023Z,10.80
2022-11-06T19:16:33.944Z,10.80
2022-11-06T19:19:05.694Z,10.80
2022-11-06T19:21:40.423Z,10.80
2022-11-06T19:24:07.479Z,10.80
2022-11-06T19:26:37.972Z,10.80
2022-11-06T19:29:08.077Z,10.80
2022-11-06T19:31:39.348Z,10.80
2022-11-06T19:34:08.441Z,10.80
2022-11-06T19:36:38.522Z,10.80
2022-11-06T19:39:07.293Z,10.80
2022-11-06T19:41:34.448Z,10.80
2022-11-06T19:44:04.314Z,10.80
2022-11-06T19:46:36.141Z,10.70
2022-11-06T19:49:05.782Z,10.70
2022-11-06T19:51:33.605Z,10.80
2022-11-06T19:54:03.003Z,10.70
2022-11-06T19:56:32.086Z,10.70
2022-11-06T19:58:59.012Z,10.60
2022-11-06T20:01:26.185Z,10.60
2022-11-06T20:03:53.275Z,10.60
2022-11-06T20:06:20.322Z,10.60
2022-11-06T20:08:50.164Z,10.60
2022-11-06T20:11:17.701Z,10.60
2022-11-06T20:13:48.594Z,10.70
2022-11-06T20:16:19.883Z,10.70
2022-11-06T20:18:59.601Z,10.70
2022-11-06T20:21:30.561Z,10.70
2022-11-06T20:23:59.876Z,10.70
2022-11-06T20:26:29.064Z,10.70
2022-11-06T20:28:55.919Z,10.70
2022-11-06T20:31:25.363Z,10.80
2022-11-06T20:33:54.729Z,10.80
2022-11-06T20:36:29.587Z,10.80
2022-11-06T20:39:02.148Z,10.80
2022-11-06T20:41:29.825Z,10.80
2022-11-06T20:43:59.381Z,10.80
2022-11-06T20:46:26.466Z,10.80
2022-11-06T20:48:53.431Z,10.80
2022-11-06T20:51:27.106Z,10.80
2022-11-06T20:53:56.798Z,10.80
2022-11-06T20:56:27.395Z,10.90
2022-11-06T20:58:59.754Z,10.90
2022-11-06T21:01:29.354Z,11.00
2022-11-06T21:03:57.579Z,11.00
2022-11-06T21:06:26.692Z,11.00
2022-11-06T21:08:54.328Z,11.00
2022-11-06T21:11:26.876Z,11.00
2022-11-06T21:14:01.507Z,11.10
2022-11-06T21:16:35.396Z,11.10
2022-11-06T21:19:08.833Z,11.20
2022-11-06T21:21:37.354Z,11.20
2022-11-06T21:24:05.240Z,11.20
2022-11-06T21:26:38.131Z,11.20
2022-11-06T21:29:08.720Z,11.30
2022-11-06T21:31:35.678Z,11.30
2022-11-06T21:34:05.856Z,11.30
2022-11-06T21:36:38.567Z,11.30
2022-11-06T21:39:12.294Z,11.30
2022-11-06T21:41:43.495Z,11.30
2022-11-06T21:44:15.730Z,11.30
2022-11-06T21:46:46.269Z,11.40
2022-11-06T21:49:14.094Z,11.40
2022-11-06T21:51:41.589Z,11.40
2022-11-06T21:54:30.332Z,11.40
2022-11-06T21:56:59.454Z,11.40
2022-11-06T21:59:28.824Z,11.50
2022-11-06T22:01:56.020Z,11.50
2022-11-06T22:04:25.430Z,11.50
2022-11-06T22:06:54.813Z,11.50
2022-11-06T22:09:25.317Z,11.40
2022-11-06T22:11:53.483Z,11.40
2022-11-06T22:14:20.331Z,11.40
2022-11-06T22:16:48.025Z,11.30
2022-11-06T22:19:17.480Z,11.30
2022-11-06T22:21:45.287Z,11.20
2022-11-06T22:24:16.228Z,11.20
2022-11-06T22:26:43.184Z,11.20
2022-11-06T22:29:14.223Z,11.10
2022-11-06T22:31:43.574Z,11.10
2022-11-06T22:34:12.640Z,11.10
2022-11-06T22:36:42.985Z,11.10
2022-11-06T22:39:12.419Z,11.10
2022-11-06T22:41:42.388Z,11.00
2022-11-06T22:44:09.537Z,11.10
2022-11-06T22:46:39.285Z,11.10
2022-11-06T22:49:10.717Z,11.00
2022-11-06T22:51:37.667Z,11.10
2022-11-06T22:54:04.857Z,11.10
2022-11-06T22:56:34.698Z,11.10
2022-11-06T22:59:07.620Z,11.10
2022-11-06T23:01:41.251Z,11.10
2022-11-06T23:04:14.859Z,11.10
2022-11-06T23:06:45.920Z,11.20
2022-11-06T23:09:13.786Z,11.20
2022-11-06T23:11:40.711Z,11.20
2022-11-06T23:14:09.799Z,11.20
2022-11-06T23:16:55.922Z,11.20
2022-11-06T23:19:23.727Z,11.20
2022-11-06T23:21:50.645Z,11.20
2022-11-06T23:24:19.579Z,11.30
2022-11-06T23:26:48.496Z,11.30
2022-11-06T23:29:18.452Z,11.30
2022-11-06T23:31:45.290Z,11.30
2022-11-06T23:34:14.355Z,11.30
2022-11-06T23:36:41.175Z,11.30
2022-11-06T23:39:08.001Z,11.30
2022-11-06T23:41:45.528Z,11.30
2022-11-06T23:44:33.247Z,11.30
2022-11-06T23:47:03.241Z,11.30
2022-11-06T23:49:34.627Z,11.20
2022-11-06T23:52:01.886Z,11.20
2022-11-06T23:54:33.266Z,11.20
2022-11-06T23:57:02.601Z,11.20
2022-11-06T23:59:31.630Z,11.20
